createdAt,value
2019-05-19T00:01:01.476Z,7.03
2019-05-19T00:06:04.934Z,7.20
2019-05-19T00:11:08.244Z,6.90
2019-05-19T00:16:11.553Z,6.03
2019-05-19T00:21:14.862Z,6.27
2019-05-19T00:26:18.170Z,6.27
2019-05-19T00:31:21.617Z,6.33
2019-05-19T00:36:25.010Z,6.47
2019-05-19T00:41:28.313Z,6.70
2019-05-19T00:46:31.757Z,7.00
2019-05-19T00:51:35.238Z,6.83
2019-05-19T00:56:38.537Z,7.30
2019-05-19T01:01:41.954Z,7.17
2019-05-19T01:06:45.263Z,7.63
2019-05-19T01:11:48.570Z,7.23
2019-05-19T01:16:51.929Z,6.10
2019-05-19T01:21:56.344Z,7.50
2019-05-19T01:26:59.639Z,7.00
2019-05-19T01:32:02.997Z,6.40
2019-05-19T01:37:06.239Z,7.10
2019-05-19T01:42:09.537Z,5.90
2019-05-19T01:47:12.862Z,6.90
2019-05-19T01:52:16.168Z,6.83
2019-05-19T01:57:19.478Z,7.57
2019-05-19T02:02:22.869Z,7.40
2019-05-19T02:07:26.321Z,5.60
2019-05-19T02:12:29.696Z,6.80
2019-05-19T02:17:32.997Z,8.20
2019-05-19T02:22:36.295Z,8.70
2019-05-19T02:27:39.595Z,7.70
2019-05-19T02:32:43.022Z,7.30
2019-05-19T02:37:46.309Z,6.33
2019-05-19T02:42:51.079Z,6.30
2019-05-19T02:47:54.440Z,6.70
2019-05-19T02:52:59.303Z,7.07
2019-05-19T02:58:03.364Z,6.80
2019-05-19T03:03:07.203Z,7.57
2019-05-19T03:08:10.514Z,7.62
2019-05-19T03:13:13.803Z,7.13
2019-05-19T03:18:17.114Z,7.90
2019-05-19T03:23:20.422Z,8.20
2019-05-19T03:28:23.742Z,6.70
2019-05-19T03:33:28.701Z,8.80
2019-05-19T03:38:31.992Z,6.83
2019-05-19T03:43:35.299Z,7.10
2019-05-19T03:48:38.598Z,7.97
2019-05-19T03:53:41.889Z,9.27
2019-05-19T03:58:45.234Z,8.30
2019-05-19T04:03:48.512Z,7.40
2019-05-19T04:08:51.810Z,7.80
2019-05-19T04:13:55.115Z,6.87
2019-05-19T04:18:58.408Z,9.00
2019-05-19T04:24:01.719Z,9.60
2019-05-19T04:29:05.048Z,7.73
2019-05-19T04:34:08.345Z,9.77
2019-05-19T04:39:11.644Z,10.20
2019-05-19T04:44:14.952Z,9.77
2019-05-19T04:49:18.255Z,9.60
2019-05-19T04:54:21.565Z,8.80
2019-05-19T04:59:24.877Z,8.73
2019-05-19T05:04:29.489Z,11.17
2019-05-19T05:09:33.075Z,8.37
2019-05-19T05:14:36.366Z,10.30
2019-05-19T05:19:39.671Z,10.87
2019-05-19T05:24:43.044Z,10.50
2019-05-19T05:29:46.340Z,9.73
2019-05-19T05:34:49.651Z,9.77
2019-05-19T05:39:52.979Z,9.53
2019-05-19T05:44:56.289Z,10.20
2019-05-19T05:49:59.598Z,10.77
2019-05-19T05:55:02.965Z,10.33
2019-05-19T06:00:07.867Z,10.43
2019-05-19T06:05:11.303Z,10.47
2019-05-19T06:10:14.691Z,10.70
2019-05-19T06:15:17.989Z,12.93
2019-05-19T06:20:21.297Z,10.70
2019-05-19T06:25:24.696Z,9.83
2019-05-19T06:30:28.025Z,11.80
2019-05-19T06:35:31.343Z,11.27
2019-05-19T06:40:34.660Z,10.07
2019-05-19T06:45:37.978Z,10.90
2019-05-19T06:50:41.299Z,9.93
2019-05-19T06:55:44.593Z,10.30
2019-05-19T07:00:47.899Z,10.83
2019-05-19T07:05:51.240Z,9.90
2019-05-19T07:10:54.523Z,11.43
2019-05-19T07:15:57.860Z,11.77
2019-05-19T07:21:01.235Z,10.17
2019-05-19T07:26:04.548Z,10.83
2019-05-19T07:31:07.851Z,10.37
2019-05-19T07:36:11.165Z,10.50
2019-05-19T07:41:14.505Z,10.70
2019-05-19T07:46:17.815Z,10.73
2019-05-19T07:51:21.129Z,10.73
2019-05-19T07:56:24.557Z,9.73
2019-05-19T08:01:27.834Z,8.93
2019-05-19T08:06:31.128Z,9.57
2019-05-19T08:11:34.791Z,8.00
2019-05-19T08:16:38.107Z,8.00
2019-05-19T08:21:41.390Z,8.17
2019-05-19T08:26:44.695Z,8.47
2019-05-19T08:31:48.020Z,8.40
2019-05-19T08:36:51.320Z,8.33
2019-05-19T08:41:54.639Z,8.77
2019-05-19T08:46:57.952Z,7.70
2019-05-19T08:52:01.302Z,7.17
2019-05-19T08:57:04.558Z,7.13
2019-05-19T09:02:07.883Z,7.73
2019-05-19T09:07:11.174Z,7.10
2019-05-19T09:12:14.509Z,8.97
2019-05-19T09:17:17.853Z,8.57
2019-05-19T09:22:21.171Z,6.80
2019-05-19T09:27:24.474Z,6.10
2019-05-19T09:32:28.015Z,6.77
2019-05-19T09:37:31.380Z,6.03
2019-05-19T09:42:34.682Z,5.87
2019-05-19T09:47:39.027Z,6.03
2019-05-19T09:52:42.301Z,5.10
2019-05-19T09:57:45.637Z,6.43
2019-05-19T10:02:49.043Z,5.20
2019-05-19T10:07:52.356Z,5.37
2019-05-19T10:12:55.660Z,5.33
2019-05-19T10:17:58.965Z,6.23
2019-05-19T10:23:02.305Z,5.67
2019-05-19T10:28:05.619Z,4.73
2019-05-19T10:33:09.015Z,6.20
2019-05-19T10:38:12.332Z,6.40
2019-05-19T10:43:15.651Z,6.17
2019-05-19T10:48:18.951Z,6.30
2019-05-19T10:53:22.254Z,5.97
2019-05-19T10:58:25.651Z,6.13
2019-05-19T11:03:28.958Z,5.40
2019-05-19T11:08:32.267Z,6.00
2019-05-19T11:13:35.743Z,6.27
2019-05-19T11:18:39.024Z,5.27
2019-05-19T11:23:42.320Z,7.37
2019-05-19T11:28:45.640Z,6.50
2019-05-19T11:33:49.009Z,5.67
2019-05-19T11:38:52.342Z,5.57
2019-05-19T11:43:55.649Z,9.10
2019-05-19T11:48:58.972Z,24.47
2019-05-19T11:54:02.327Z,11.07
2019-05-19T11:59:05.654Z,16.83
2019-05-19T12:04:09.120Z,5.50
2019-05-19T12:09:12.388Z,6.00
2019-05-19T12:14:16.647Z,5.20
2019-05-19T12:19:19.936Z,5.50
2019-05-19T12:24:23.259Z,5.60
2019-05-19T12:29:26.575Z,4.67
2019-05-19T12:34:29.874Z,4.37
2019-05-19T12:39:33.166Z,4.53
2019-05-19T12:44:36.513Z,4.27
2019-05-19T12:49:39.826Z,4.70
2019-05-19T12:54:43.141Z,4.40
2019-05-19T12:59:46.440Z,4.17
2019-05-19T13:05:04.212Z,3.90
2019-05-19T13:09:54.779Z,4.23
2019-05-19T13:14:58.090Z,3.77
2019-05-19T13:20:01.384Z,3.77
2019-05-19T13:25:05.564Z,3.80
2019-05-19T13:30:09.199Z,3.87
2019-05-19T13:35:12.737Z,3.70
2019-05-19T13:40:16.108Z,3.07
2019-05-19T13:45:20.255Z,4.00
2019-05-19T13:50:23.541Z,3.70
2019-05-19T13:55:26.855Z,4.67
2019-05-19T14:00:30.151Z,4.35
2019-05-19T14:05:33.508Z,3.85
2019-05-19T14:10:36.875Z,4.50
2019-05-19T14:15:41.941Z,4.53
2019-05-19T14:20:45.219Z,4.57
2019-05-19T14:25:48.541Z,5.42
2019-05-19T14:30:51.840Z,4.12
2019-05-19T14:35:55.183Z,4.30
2019-05-19T14:40:58.486Z,4.15
2019-05-19T14:46:01.820Z,5.12
2019-05-19T14:51:05.136Z,4.80
2019-05-19T14:56:08.426Z,5.00
2019-05-19T15:01:11.783Z,5.00
2019-05-19T15:06:15.085Z,4.12
2019-05-19T15:11:18.418Z,4.53
2019-05-19T15:16:21.725Z,4.35
2019-05-19T15:21:25.014Z,4.12
2019-05-19T15:26:29.323Z,4.47
2019-05-19T15:31:32.642Z,4.35
2019-05-19T15:36:35.968Z,4.25
2019-05-19T15:41:39.268Z,4.05
2019-05-19T15:46:42.593Z,4.30
2019-05-19T15:52:00.778Z,4.33
2019-05-19T15:56:51.091Z,4.53
2019-05-19T16:01:54.391Z,4.40
2019-05-19T16:06:57.714Z,4.17
2019-05-19T16:12:01.054Z,4.17
2019-05-19T16:17:04.344Z,3.62
2019-05-19T16:22:07.661Z,3.45
2019-05-19T16:27:12.833Z,3.40
2019-05-19T16:32:16.005Z,3.57
2019-05-19T16:37:19.298Z,3.43
2019-05-19T16:42:22.663Z,4.17
2019-05-19T16:47:26.024Z,4.00
2019-05-19T16:52:29.305Z,4.07
2019-05-19T16:57:32.584Z,3.47
2019-05-19T17:02:35.862Z,3.40
2019-05-19T17:07:39.210Z,3.10
2019-05-19T17:12:42.461Z,3.27
2019-05-19T17:17:45.865Z,2.27
2019-05-19T17:22:49.299Z,2.70
2019-05-19T17:27:53.547Z,2.27
2019-05-19T17:32:56.924Z,2.13
2019-05-19T17:38:00.268Z,2.40
2019-05-19T17:43:03.553Z,2.07
2019-05-19T17:48:10.309Z,2.27
2019-05-19T17:53:12.920Z,2.67
2019-05-19T17:58:16.293Z,2.17
2019-05-19T18:03:19.603Z,3.43
2019-05-19T18:08:23.076Z,2.37
2019-05-19T18:13:26.825Z,2.37
2019-05-19T18:18:30.210Z,2.23
2019-05-19T18:23:34.961Z,2.80
2019-05-19T18:28:42.049Z,2.17
2019-05-19T18:33:47.122Z,2.23
2019-05-19T18:38:50.513Z,2.20
2019-05-19T18:43:55.834Z,2.10
2019-05-19T18:48:59.351Z,2.07
2019-05-19T18:54:02.796Z,2.17
2019-05-19T18:59:06.181Z,2.60
2019-05-19T19:04:10.734Z,2.17
2019-05-19T19:09:14.635Z,2.77
2019-05-19T19:14:20.201Z,1.83
2019-05-19T19:19:25.182Z,2.30
2019-05-19T19:24:28.888Z,2.73
2019-05-19T19:29:32.684Z,2.50
2019-05-19T19:34:36.543Z,2.10
2019-05-19T19:39:40.095Z,2.67
2019-05-19T19:44:43.723Z,2.53
2019-05-19T19:49:48.030Z,2.80
2019-05-19T19:54:54.281Z,2.27
2019-05-19T20:00:15.789Z,2.80
2019-05-19T20:05:09.345Z,2.30
2019-05-19T20:10:12.954Z,2.53
2019-05-19T20:15:16.472Z,3.33
2019-05-19T20:20:19.976Z,2.90
2019-05-19T20:25:23.420Z,3.40
2019-05-19T20:30:35.743Z,2.83
2019-05-19T20:35:33.376Z,3.10
2019-05-19T20:40:36.851Z,2.90
2019-05-19T20:45:40.285Z,3.37
2019-05-19T20:50:43.592Z,3.50
2019-05-19T20:55:47.268Z,3.00
2019-05-19T21:00:51.963Z,3.57
2019-05-19T21:05:55.490Z,3.73
2019-05-19T21:10:59.019Z,4.00
2019-05-19T21:16:02.294Z,4.43
2019-05-19T21:21:06.621Z,3.73
2019-05-19T21:26:10.065Z,3.43
2019-05-19T21:31:13.459Z,3.90
2019-05-19T21:36:16.997Z,3.37
2019-05-19T21:41:20.280Z,4.20
2019-05-19T21:46:23.590Z,4.07
2019-05-19T21:51:26.872Z,4.67
2019-05-19T21:56:30.304Z,4.33
2019-05-19T22:01:34.007Z,3.83
2019-05-19T22:06:39.075Z,4.30
2019-05-19T22:11:42.392Z,4.00
2019-05-19T22:16:45.677Z,3.90
2019-05-19T22:21:48.993Z,4.07
2019-05-19T22:26:52.306Z,3.60
2019-05-19T22:31:55.582Z,3.47
2019-05-19T22:36:58.876Z,4.43
2019-05-19T22:42:02.222Z,4.10
2019-05-19T22:47:05.510Z,4.03
2019-05-19T22:52:08.817Z,3.40
2019-05-19T22:57:12.131Z,4.37
2019-05-19T23:02:15.446Z,4.50
2019-05-19T23:07:18.759Z,4.40
2019-05-19T23:12:22.117Z,4.13
2019-05-19T23:17:25.414Z,3.83
2019-05-19T23:22:28.716Z,4.73
2019-05-19T23:27:32.114Z,4.53
2019-05-19T23:32:35.528Z,5.13
2019-05-19T23:37:38.896Z,4.30
2019-05-19T23:42:42.259Z,5.20
2019-05-19T23:47:45.554Z,4.23
2019-05-19T23:52:49.027Z,4.50
2019-05-19T23:57:53.680Z,4.27
